Time;durP1;ratioP1;P1;durP2;ratioP2;P2;SDS_P1;SDS_P2;PMS_P1;PMS_P2;Temp;Humidity;BMP_temperature;BMP_pressure;BME280_temperature;BME280_humidity;BME280_pressure;Samples;Min_cycle;Max_cycle;Signal;HPM_P1;HPM_P2
2022/09/04 00:01:55;;;;;;;4.30;1.90;;;;;;;;;;5079752;28;21019;-81
2022/09/04 00:04:26;;;;;;;3.00;2.05;;;;;;;;;;5077463;28;20398;-81
2022/09/04 00:07:00;;;;;;;3.15;2.10;;;;;;;;;;5079097;28;20490;-81
2022/09/04 00:09:31;;;;;;;2.20;2.00;;;;;;;;;;5080026;28;20407;-81
2022/09/04 00:12:03;;;;;;;3.55;1.80;;;;;;;;;;5078791;28;20435;-79
2022/09/04 00:14:36;;;;;;;2.30;1.67;;;;;;;;;;5063246;28;20432;-79
2022/09/04 00:17:05;;;;;;;2.90;1.90;;;;;;;;;;5078833;28;20436;-81
2022/09/04 00:19:34;;;;;;;3.67;1.88;;;;;;;;;;5078397;28;20776;-81
2022/09/04 00:22:02;;;;;;;2.20;2.00;;;;;;;;;;5077115;28;21503;-82
2022/09/04 00:24:30;;;;;;;2.40;2.10;;;;;;;;;;5079088;28;20427;-82
2022/09/04 00:26:59;;;;;;;3.40;1.70;;;;;;;;;;5080335;28;20805;-81
2022/09/04 00:29:30;;;;;;;7.30;2.37;;;;;;;;;;5079663;28;20420;-81
2022/09/04 00:32:02;;;;;;;2.40;2.00;;;;;;;;;;5076878;28;20457;-81
2022/09/04 00:34:41;;;;;;;3.28;2.08;;;;;;;;;;5079312;28;20889;-81
2022/09/04 00:37:12;;;;;;;1.83;1.70;;;;;;;;;;5078738;28;20430;-81
2022/09/04 00:39:40;;;;;;;4.40;1.90;;;;;;;;;;5076284;28;20438;-81
2022/09/04 00:42:16;;;;;;;2.35;2.00;;;;;;;;;;5076499;28;20434;-81
2022/09/04 00:44:49;;;;;;;3.27;1.80;;;;;;;;;;5077613;28;20499;-81
2022/09/04 00:47:33;;;;;;;2.00;1.80;;;;;;;;;;5074946;28;20428;-81
2022/09/04 00:50:28;;;;;;;3.90;2.17;;;;;;;;;;5077659;28;20406;-81
2022/09/04 00:53:07;;;;;;;2.10;1.67;;;;;;;;;;5063753;28;20795;-81
2022/09/04 00:55:43;;;;;;;2.10;1.75;;;;;;;;;;5075735;28;20428;-81
2022/09/04 00:58:20;;;;;;;1.73;1.63;;;;;;;;;;5076174;28;20436;-79
2022/09/04 01:00:47;;;;;;;2.50;1.90;;;;;;;;;;5110017;27;20426;-79
2022/09/04 01:03:32;;;;;;;5.00;2.17;;;;;;;;;;5078974;28;20434;-81
2022/09/04 01:06:12;;;;;;;3.15;1.95;;;;;;;;;;5076887;28;20443;-79
2022/09/04 01:08:46;;;;;;;3.00;1.90;;;;;;;;;;5076406;28;20428;-81
2022/09/04 01:11:14;;;;;;;2.92;2.00;;;;;;;;;;5062644;28;20427;-80
2022/09/04 01:13:43;;;;;;;2.30;1.88;;;;;;;;;;5078652;28;20440;-79
2022/09/04 01:16:13;;;;;;;3.97;2.13;;;;;;;;;;5076790;28;20452;-80
2022/09/04 01:18:44;;;;;;;3.30;1.80;;;;;;;;;;5076505;28;20430;-81
2022/09/04 01:21:18;;;;;;;2.65;2.00;;;;;;;;;;5076921;28;20435;-81
2022/09/04 01:23:52;;;;;;;2.55;2.05;;;;;;;;;;5077313;28;20425;-81
2022/09/04 01:26:23;;;;;;;2.55;2.20;;;;;;;;;;5073620;28;20430;-81
2022/09/04 01:28:58;;;;;;;1.90;1.80;;;;;;;;;;5079295;28;20432;-81
2022/09/04 01:31:30;;;;;;;4.30;2.20;;;;;;;;;;5063290;28;20417;-81
2022/09/04 01:34:02;;;;;;;3.90;2.08;;;;;;;;;;5061934;28;20778;-81
2022/09/04 01:36:35;;;;;;;3.30;2.00;;;;;;;;;;5078758;28;20450;-81
2022/09/04 01:39:02;;;;;;;2.20;2.00;;;;;;;;;;5061370;28;20647;-81
2022/09/04 01:41:32;;;;;;;2.45;2.00;;;;;;;;;;5078541;28;20431;-81
2022/09/04 01:43:58;;;;;;;2.65;2.15;;;;;;;;;;5078508;28;20438;-81
2022/09/04 01:46:34;;;;;;;2.63;1.98;;;;;;;;;;5076095;28;20430;-81
2022/09/04 01:49:04;;;;;;;2.33;1.92;;;;;;;;;;5075419;28;20434;-81
2022/09/04 01:51:35;;;;;;;4.72;2.10;;;;;;;;;;5078102;28;20419;-82
2022/09/04 01:54:08;;;;;;;2.75;1.90;;;;;;;;;;5078214;28;20430;-79
2022/09/04 01:56:40;;;;;;;3.05;2.00;;;;;;;;;;5073194;28;20431;-81
2022/09/04 01:59:11;;;;;;;2.97;1.90;;;;;;;;;;5076268;28;20792;-81
2022/09/04 02:01:42;;;;;;;3.08;2.20;;;;;;;;;;5078756;28;20472;-81
2022/09/04 02:04:11;;;;;;;4.45;2.00;;;;;;;;;;5061233;28;20913;-79
2022/09/04 02:06:42;;;;;;;3.33;2.20;;;;;;;;;;5076384;28;20864;-79
2022/09/04 02:09:17;;;;;;;4.20;2.10;;;;;;;;;;5076060;28;20418;-79
2022/09/04 02:11:50;;;;;;;6.72;2.20;;;;;;;;;;5077224;28;20429;-79
2022/09/04 02:14:26;;;;;;;2.50;1.80;;;;;;;;;;5080687;28;20467;-80
2022/09/04 02:16:58;;;;;;;2.75;1.92;;;;;;;;;;5077933;28;21009;-80
2022/09/04 02:19:31;;;;;;;2.80;2.23;;;;;;;;;;5077276;28;20509;-80
2022/09/04 02:22:01;;;;;;;3.20;1.90;;;;;;;;;;5077752;28;20554;-80
2022/09/04 02:24:30;;;;;;;2.50;2.30;;;;;;;;;;5076147;28;20430;-80
2022/09/04 02:27:01;;;;;;;3.30;2.20;;;;;;;;;;5075536;28;20418;-80
2022/09/04 02:29:31;;;;;;;2.50;1.83;;;;;;;;;;5075543;28;20773;-79
2022/09/04 02:32:01;;;;;;;2.78;2.40;;;;;;;;;;5077604;28;20436;-80
2022/09/04 02:34:33;;;;;;;4.40;2.10;;;;;;;;;;5075997;28;20416;-80
2022/09/04 02:37:03;;;;;;;2.42;1.83;;;;;;;;;;5075853;28;20439;-80
2022/09/04 02:39:39;;;;;;;3.90;1.92;;;;;;;;;;5075329;28;20427;-80
2022/09/04 02:42:12;;;;;;;2.33;1.90;;;;;;;;;;5074982;28;20429;-80
2022/09/04 02:44:43;;;;;;;3.83;2.20;;;;;;;;;;5075765;28;22376;-80
2022/09/04 02:47:13;;;;;;;2.35;2.00;;;;;;;;;;5077302;28;20427;-80
2022/09/04 02:49:47;;;;;;;3.70;2.25;;;;;;;;;;5077831;28;20403;-80
2022/09/04 02:52:19;;;;;;;3.85;2.33;;;;;;;;;;5077257;28;20422;-80
2022/09/04 02:54:52;;;;;;;2.25;2.05;;;;;;;;;;5071802;28;20428;-80
2022/09/04 02:57:27;;;;;;;2.70;2.30;;;;;;;;;;5074325;28;20427;-80
2022/09/04 03:00:03;;;;;;;4.60;2.35;;;;;;;;;;5076755;28;21324;-80
2022/09/04 03:02:31;;;;;;;2.60;2.03;;;;;;;;;;5075652;28;20440;-80
2022/09/04 03:05:01;;;;;;;2.33;2.13;;;;;;;;;;5076013;28;20426;-80
2022/09/04 03:07:31;;;;;;;2.13;1.90;;;;;;;;;;5075751;28;20431;-80
2022/09/04 03:10:02;;;;;;;4.20;2.13;;;;;;;;;;5075595;28;20406;-80
2022/09/04 03:12:34;;;;;;;3.33;2.30;;;;;;;;;;5076010;28;20539;-80
2022/09/04 03:15:03;;;;;;;4.53;1.98;;;;;;;;;;5074793;28;20427;-80
2022/09/04 03:17:34;;;;;;;2.60;2.05;;;;;;;;;;5078115;28;20426;-80
2022/09/04 03:20:04;;;;;;;5.40;2.60;;;;;;;;;;5076762;28;20423;-79
2022/09/04 03:22:32;;;;;;;5.15;2.30;;;;;;;;;;5075417;28;20468;-80
2022/09/04 03:25:06;;;;;;;3.20;2.10;;;;;;;;;;5076170;28;20418;-80
2022/09/04 03:27:35;;;;;;;2.40;2.20;;;;;;;;;;5076128;28;20439;-80
2022/09/04 03:30:04;;;;;;;3.30;2.30;;;;;;;;;;5074197;28;20424;-80
2022/09/04 03:32:35;;;;;;;2.60;2.20;;;;;;;;;;5076247;28;20443;-80
2022/09/04 03:35:04;;;;;;;3.85;2.42;;;;;;;;;;5075071;28;20419;-80
2022/09/04 03:37:37;;;;;;;3.15;2.10;;;;;;;;;;5076098;28;20446;-80
2022/09/04 03:40:12;;;;;;;3.90;2.20;;;;;;;;;;5076519;28;20428;-80
2022/09/04 03:42:44;;;;;;;3.97;2.10;;;;;;;;;;5075362;28;20421;-80
2022/09/04 03:45:16;;;;;;;2.60;2.40;;;;;;;;;;5076039;28;20427;-81
2022/09/04 03:47:48;;;;;;;4.07;2.60;;;;;;;;;;5076968;28;20517;-80
2022/09/04 03:50:18;;;;;;;3.40;2.03;;;;;;;;;;5059343;28;20440;-80
2022/09/04 03:52:48;;;;;;;3.47;2.35;;;;;;;;;;5076642;28;20799;-81
2022/09/04 03:55:23;;;;;;;2.40;1.80;;;;;;;;;;5059331;28;20455;-79
2022/09/04 03:57:56;;;;;;;4.00;2.70;;;;;;;;;;5077252;28;20436;-80
2022/09/04 04:00:23;;;;;;;2.40;2.20;;;;;;;;;;5079339;28;20478;-80
2022/09/04 04:03:02;;;;;;;4.30;2.50;;;;;;;;;;5076103;28;20474;-80
2022/09/04 04:05:36;;;;;;;2.70;2.30;;;;;;;;;;5079136;28;20429;-80
2022/09/04 04:08:18;;;;;;;2.65;2.45;;;;;;;;;;5079019;28;20442;-80
2022/09/04 04:10:51;;;;;;;3.20;2.53;;;;;;;;;;5063304;28;20428;-80
2022/09/04 04:13:35;;;;;;;5.20;2.58;;;;;;;;;;5075052;28;20438;-79
2022/09/04 04:16:18;;;;;;;3.90;2.40;;;;;;;;;;5078382;28;20433;-80
2022/09/04 04:18:53;;;;;;;2.50;2.30;;;;;;;;;;5078092;28;20432;-80
2022/09/04 04:21:26;;;;;;;4.97;2.50;;;;;;;;;;5078249;28;20430;-80
2022/09/04 04:24:13;;;;;;;5.22;2.60;;;;;;;;;;5079510;28;20430;-80
2022/09/04 04:26:46;;;;;;;3.33;2.53;;;;;;;;;;5064145;28;20789;-80
2022/09/04 04:29:19;;;;;;;3.67;2.25;;;;;;;;;;5078676;28;20791;-79
2022/09/04 04:32:09;;;;;;;3.90;2.47;;;;;;;;;;5077995;28;20441;-80
2022/09/04 04:34:40;;;;;;;3.22;2.42;;;;;;;;;;5079665;28;20471;-79
2022/09/04 04:37:09;;;;;;;3.33;2.20;;;;;;;;;;5079282;28;20809;-80
2022/09/04 04:39:39;;;;;;;3.70;2.40;;;;;;;;;;5076195;28;20455;-79
2022/09/04 04:42:16;;;;;;;4.60;2.30;;;;;;;;;;5079781;28;20431;-79
2022/09/04 04:47:47;;;;;;;2.63;2.35;;;;;;;;;;5081393;28;20772;-80
2022/09/04 04:50:19;;;;;;;2.83;2.10;;;;;;;;;;5079672;28;20434;-80
2022/09/04 04:52:52;;;;;;;3.10;2.65;;;;;;;;;;5078977;28;20438;-80
2022/09/04 04:55:22;;;;;;;2.95;2.30;;;;;;;;;;5078929;28;20794;-80
2022/09/04 04:57:55;;;;;;;4.13;2.58;;;;;;;;;;5077956;28;20430;-79
2022/09/04 05:00:23;;;;;;;3.70;2.40;;;;;;;;;;5078618;28;20427;-81
2022/09/04 05:02:55;;;;;;;3.53;2.43;;;;;;;;;;5078565;28;20435;-79
2022/09/04 05:05:27;;;;;;;3.78;2.20;;;;;;;;;;5078148;28;20421;-79
2022/09/04 05:07:59;;;;;;;4.20;2.63;;;;;;;;;;5076666;28;20436;-80
2022/09/04 05:10:29;;;;;;;5.45;3.03;;;;;;;;;;5075954;28;20450;-79
2022/09/04 05:13:01;;;;;;;4.88;2.88;;;;;;;;;;5079661;28;20425;-79
2022/09/04 05:15:32;;;;;;;2.60;2.40;;;;;;;;;;5075164;28;20417;-80
2022/09/04 05:18:04;;;;;;;3.58;2.53;;;;;;;;;;5078173;28;20441;-80
2022/09/04 05:20:36;;;;;;;3.10;2.30;;;;;;;;;;5079605;28;20418;-79
2022/09/04 05:23:09;;;;;;;2.90;2.30;;;;;;;;;;5077192;28;20447;-79
2022/09/04 05:25:40;;;;;;;3.25;2.35;;;;;;;;;;5075150;28;20428;-80
2022/09/04 05:28:12;;;;;;;3.87;2.37;;;;;;;;;;5078184;28;20448;-80
2022/09/04 05:30:42;;;;;;;4.97;2.55;;;;;;;;;;5077423;28;21188;-79
2022/09/04 05:33:15;;;;;;;4.53;2.50;;;;;;;;;;5078561;28;20487;-79
2022/09/04 05:35:45;;;;;;;4.40;2.40;;;;;;;;;;5075691;28;20429;-79
2022/09/04 05:38:15;;;;;;;2.80;2.50;;;;;;;;;;5075557;28;20437;-80
2022/09/04 05:40:49;;;;;;;3.65;2.47;;;;;;;;;;5076364;28;21036;-79
2022/09/04 05:43:21;;;;;;;2.60;2.40;;;;;;;;;;5080087;28;20406;-80
2022/09/04 05:45:51;;;;;;;4.72;3.40;;;;;;;;;;5074664;28;20438;-80
2022/09/04 05:48:22;;;;;;;4.78;2.40;;;;;;;;;;5071208;28;20453;-79
2022/09/04 05:51:04;;;;;;;2.95;2.65;;;;;;;;;;5076964;28;20511;-79
2022/09/04 05:53:39;;;;;;;4.28;2.70;;;;;;;;;;5075123;28;20440;-80
2022/09/04 05:56:13;;;;;;;4.30;2.60;;;;;;;;;;5077173;28;20797;-79
2022/09/04 05:58:53;;;;;;;2.90;2.60;;;;;;;;;;5077210;28;20999;-79
2022/09/04 06:01:27;;;;;;;3.10;2.50;;;;;;;;;;5076337;28;20441;-79
2022/09/04 06:04:08;;;;;;;4.50;2.70;;;;;;;;;;5074369;28;20588;-79
2022/09/04 06:06:39;;;;;;;3.22;2.80;;;;;;;;;;5076544;28;20439;-79
2022/09/04 06:09:20;;;;;;;5.30;2.42;;;;;;;;;;5072255;28;20461;-80
2022/09/04 06:11:55;;;;;;;3.60;2.60;;;;;;;;;;5060084;28;20490;-79
2022/09/04 06:14:29;;;;;;;4.15;2.53;;;;;;;;;;5074025;28;20423;-79
2022/09/04 06:17:07;;;;;;;5.07;3.20;;;;;;;;;;5075697;28;20435;-79
2022/09/04 06:19:48;;;;;;;5.13;2.88;;;;;;;;;;5074599;28;20936;-81
2022/09/04 06:22:29;;;;;;;3.00;2.50;;;;;;;;;;5075684;28;20645;-85
2022/09/04 06:25:04;;;;;;;4.57;3.00;;;;;;;;;;5073638;28;20427;-81
2022/09/04 06:27:38;;;;;;;3.80;2.75;;;;;;;;;;5063800;28;20921;-81
2022/09/04 06:30:07;;;;;;;3.05;2.55;;;;;;;;;;5073636;28;20459;-81
2022/09/04 06:32:52;;;;;;;3.40;2.90;;;;;;;;;;5073591;28;20424;-81
2022/09/04 06:35:26;;;;;;;3.33;3.03;;;;;;;;;;5076442;28;20783;-79
2022/09/04 06:37:58;;;;;;;5.75;3.10;;;;;;;;;;5077145;28;20431;-81
2022/09/04 06:40:40;;;;;;;5.93;2.92;;;;;;;;;;5071693;28;20442;-81
2022/09/04 06:43:12;;;;;;;3.67;3.00;;;;;;;;;;5075900;28;20966;-81
2022/09/04 06:45:45;;;;;;;5.80;3.15;;;;;;;;;;5061549;28;20433;-81
2022/09/04 06:48:17;;;;;;;3.50;3.10;;;;;;;;;;5072071;28;20426;-79
2022/09/04 06:50:52;;;;;;;3.40;3.10;;;;;;;;;;5075689;28;20431;-80
2022/09/04 06:53:26;;;;;;;4.90;3.20;;;;;;;;;;5076146;28;20422;-81
2022/09/04 06:56:08;;;;;;;4.90;3.20;;;;;;;;;;5074379;28;20517;-79
2022/09/04 06:59:02;;;;;;;5.55;3.60;;;;;;;;;;5073417;28;20430;-78
2022/09/04 07:01:39;;;;;;;4.20;3.80;;;;;;;;;;5021139;28;20937;-79
2022/09/04 07:04:12;;;;;;;6.25;3.50;;;;;;;;;;5076074;28;20512;-79
2022/09/04 07:06:51;;;;;;;4.20;3.10;;;;;;;;;;5078086;28;20436;-78
2022/09/04 07:09:20;;;;;;;5.00;3.30;;;;;;;;;;5076074;28;20443;-79
2022/09/04 07:11:56;;;;;;;4.53;3.40;;;;;;;;;;5074627;28;20423;-79
2022/09/04 07:14:34;;;;;;;4.10;3.20;;;;;;;;;;5074388;28;20419;-79
2022/09/04 07:17:06;;;;;;;6.30;3.70;;;;;;;;;;5072414;28;20446;-78
2022/09/04 07:19:46;;;;;;;4.40;3.50;;;;;;;;;;5074331;28;20500;-79
2022/09/04 07:22:23;;;;;;;5.40;3.60;;;;;;;;;;5075000;28;20427;-79
2022/09/04 07:24:55;;;;;;;9.20;4.00;;;;;;;;;;5076662;28;20527;-79
2022/09/04 07:27:27;;;;;;;5.87;4.00;;;;;;;;;;5077516;28;20563;-78
2022/09/04 07:29:56;;;;;;;4.00;3.60;;;;;;;;;;5072659;28;20905;-78
2022/09/04 07:32:28;;;;;;;4.20;3.70;;;;;;;;;;5080676;28;20439;-78
2022/09/04 07:34:57;;;;;;;5.65;3.67;;;;;;;;;;5080492;28;20427;-79
2022/09/04 07:37:31;;;;;;;4.45;4.05;;;;;;;;;;5081877;28;20439;-80
2022/09/04 07:40:00;;;;;;;4.23;3.83;;;;;;;;;;5064400;28;20444;-81
2022/09/04 07:42:30;;;;;;;6.07;3.85;;;;;;;;;;5079404;28;20863;-78
2022/09/04 07:45:02;;;;;;;8.00;3.90;;;;;;;;;;5062766;28;20560;-79
2022/09/04 07:47:33;;;;;;;6.03;4.03;;;;;;;;;;5075050;28;20437;-78
2022/09/04 07:50:02;;;;;;;7.13;4.00;;;;;;;;;;5080832;28;20787;-78
2022/09/04 07:52:37;;;;;;;8.50;4.05;;;;;;;;;;5080345;28;20427;-78
2022/09/04 07:55:14;;;;;;;4.47;3.95;;;;;;;;;;5079293;28;20423;-79
2022/09/04 07:57:49;;;;;;;5.87;4.00;;;;;;;;;;5078970;28;20422;-78
2022/09/04 08:00:17;;;;;;;5.43;4.10;;;;;;;;;;5080687;28;20800;-79
2022/09/04 08:03:10;;;;;;;4.40;4.00;;;;;;;;;;5078681;28;20510;-78
2022/09/04 08:05:39;;;;;;;5.80;4.30;;;;;;;;;;5061274;28;20444;-78
2022/09/04 08:08:16;;;;;;;6.13;4.28;;;;;;;;;;5079051;28;20484;-80
2022/09/04 08:10:50;;;;;;;4.10;3.60;;;;;;;;;;5079780;28;20430;-80
2022/09/04 08:13:34;;;;;;;5.30;4.03;;;;;;;;;;5073657;28;20443;-78
2022/09/04 08:16:05;;;;;;;5.05;3.90;;;;;;;;;;5075290;28;20508;-80
2022/09/04 08:18:40;;;;;;;6.75;4.10;;;;;;;;;;5075224;28;20424;-80
2022/09/04 08:21:11;;;;;;;6.97;4.00;;;;;;;;;;5076022;28;20435;-80
2022/09/04 08:23:56;;;;;;;5.95;4.70;;;;;;;;;;5081348;28;20418;-78
2022/09/04 08:26:28;;;;;;;4.63;4.22;;;;;;;;;;5078364;28;20439;-79
2022/09/04 08:29:04;;;;;;;5.82;4.30;;;;;;;;;;5074642;28;20447;-79
2022/09/04 08:31:31;;;;;;;4.47;4.00;;;;;;;;;;5078424;28;22064;-80
2022/09/04 08:34:12;;;;;;;5.20;3.70;;;;;;;;;;5073442;28;20435;-80
2022/09/04 08:36:42;;;;;;;6.65;4.22;;;;;;;;;;5080288;28;20433;-81
2022/09/04 08:39:19;;;;;;;6.93;4.50;;;;;;;;;;5076672;28;20421;-81
2022/09/04 08:42:05;;;;;;;7.43;4.85;;;;;;;;;;5078250;28;20420;-81
2022/09/04 08:44:46;;;;;;;6.95;4.43;;;;;;;;;;5080695;28;20420;-81
2022/09/04 08:47:25;;;;;;;5.30;4.60;;;;;;;;;;5035709;28;20865;-78
2022/09/04 08:50:07;;;;;;;4.80;4.20;;;;;;;;;;5072758;28;20788;-78
2022/09/04 08:52:45;;;;;;;7.35;4.30;;;;;;;;;;5076444;28;20817;-78
2022/09/04 08:55:19;;;;;;;6.25;4.30;;;;;;;;;;5076711;28;20917;-78
2022/09/04 08:58:05;;;;;;;6.15;4.22;;;;;;;;;;5075468;28;20419;-79
2022/09/04 09:00:35;;;;;;;7.65;4.30;;;;;;;;;;5077769;28;20419;-80
2022/09/04 09:03:15;;;;;;;5.93;4.30;;;;;;;;;;5076265;28;20432;-80
2022/09/04 09:05:54;;;;;;;4.85;4.45;;;;;;;;;;5077077;28;20430;-80
2022/09/04 09:08:42;;;;;;;6.05;4.35;;;;;;;;;;5073850;28;21154;-80
2022/09/04 09:11:42;;;;;;;7.22;4.72;;;;;;;;;;5053418;28;20426;-80
2022/09/04 09:14:21;;;;;;;6.03;4.30;;;;;;;;;;4997958;28;20517;-79
2022/09/04 09:16:49;;;;;;;5.00;4.25;;;;;;;;;;4999296;28;20438;-79
2022/09/04 09:19:39;;;;;;;5.22;4.72;;;;;;;;;;5038370;28;20431;-79
2022/09/04 09:22:10;;;;;;;5.50;4.55;;;;;;;;;;5077177;28;20443;-80
2022/09/04 09:24:52;;;;;;;5.00;4.50;;;;;;;;;;5077555;28;20427;-80
2022/09/04 09:27:33;;;;;;;6.57;4.70;;;;;;;;;;5061139;28;20504;-79
2022/09/04 09:30:06;;;;;;;5.60;4.47;;;;;;;;;;5073859;28;20431;-79
2022/09/04 09:32:51;;;;;;;5.90;4.33;;;;;;;;;;5076145;28;20423;-79
2022/09/04 09:35:37;;;;;;;7.85;4.65;;;;;;;;;;5078545;28;20423;-79
2022/09/04 09:38:19;;;;;;;5.55;4.50;;;;;;;;;;5075518;28;20409;-78
2022/09/04 09:40:59;;;;;;;6.80;4.30;;;;;;;;;;5077875;28;20475;-78
2022/09/04 09:43:45;;;;;;;5.07;4.50;;;;;;;;;;5077388;28;20418;-78
2022/09/04 09:46:29;;;;;;;5.22;4.70;;;;;;;;;;5075984;28;20916;-77
2022/09/04 09:49:15;;;;;;;7.25;4.78;;;;;;;;;;5073459;28;20425;-83
2022/09/04 09:52:01;;;;;;;4.70;4.20;;;;;;;;;;5078027;28;20441;-79
2022/09/04 09:54:58;;;;;;;5.88;3.95;;;;;;;;;;5074245;28;20923;-79
2022/09/04 09:57:43;;;;;;;6.70;4.70;;;;;;;;;;5068545;28;20435;-78
2022/09/04 10:00:11;;;;;;;8.15;4.60;;;;;;;;;;5075192;28;20903;-79
2022/09/04 10:03:07;;;;;;;6.38;3.95;;;;;;;;;;5073672;28;20438;-78
2022/09/04 10:05:50;;;;;;;8.20;4.50;;;;;;;;;;5074670;28;20422;-80
2022/09/04 10:08:26;;;;;;;8.63;4.75;;;;;;;;;;5076305;28;20408;-78
2022/09/04 10:11:04;;;;;;;7.28;4.93;;;;;;;;;;5070763;28;20894;-79
2022/09/04 10:13:42;;;;;;;6.23;4.40;;;;;;;;;;5077034;28;20417;-80
2022/09/04 10:16:23;;;;;;;10.18;4.97;;;;;;;;;;5073610;28;20465;-77
2022/09/04 10:19:04;;;;;;;5.88;4.40;;;;;;;;;;5033021;28;20447;-79
2022/09/04 10:22:00;;;;;;;4.80;4.30;;;;;;;;;;5077127;28;20430;-79
2022/09/04 10:24:41;;;;;;;6.00;4.70;;;;;;;;;;5076228;28;21040;-80
2022/09/04 10:27:34;;;;;;;5.38;4.25;;;;;;;;;;5076283;28;20435;-79
2022/09/04 10:30:04;;;;;;;4.90;4.40;;;;;;;;;;5077658;28;20446;-81
2022/09/04 10:32:50;;;;;;;5.72;4.28;;;;;;;;;;5076783;28;20427;-79
2022/09/04 10:35:45;;;;;;;4.85;3.85;;;;;;;;;;5075695;28;20470;-80
2022/09/04 10:38:22;;;;;;;6.63;4.10;;;;;;;;;;5077136;28;20432;-80
2022/09/04 10:40:59;;;;;;;5.38;4.20;;;;;;;;;;5078529;28;20437;-80
2022/09/04 10:43:46;;;;;;;4.72;4.10;;;;;;;;;;5077989;28;20449;-79
2022/09/04 10:46:17;;;;;;;4.57;4.18;;;;;;;;;;5064343;28;20440;-80
2022/09/04 10:48:58;;;;;;;5.57;4.30;;;;;;;;;;5075253;28;20467;-79
2022/09/04 10:51:35;;;;;;;5.85;4.10;;;;;;;;;;5078675;28;20427;-80
2022/09/04 10:54:25;;;;;;;6.22;4.10;;;;;;;;;;5077841;28;20515;-79
2022/09/04 10:57:00;;;;;;;4.50;3.70;;;;;;;;;;5057140;28;20529;-79
2022/09/04 10:59:33;;;;;;;7.00;4.20;;;;;;;;;;5076296;28;20442;-79
2022/09/04 11:02:17;;;;;;;6.10;4.25;;;;;;;;;;5075582;28;20431;-80
2022/09/04 11:05:08;;;;;;;5.63;3.90;;;;;;;;;;5077236;28;20466;-80
2022/09/04 11:07:50;;;;;;;5.78;4.03;;;;;;;;;;5071491;28;20910;-80
2022/09/04 11:10:33;;;;;;;5.00;3.80;;;;;;;;;;5075168;28;20427;-79
2022/09/04 11:13:31;;;;;;;6.30;4.20;;;;;;;;;;5074178;28;20454;-80
2022/09/04 11:16:08;;;;;;;5.93;4.40;;;;;;;;;;5077495;28;20464;-80
2022/09/04 11:18:52;;;;;;;4.35;3.92;;;;;;;;;;5071943;28;20963;-80
2022/09/04 11:21:36;;;;;;;7.68;4.78;;;;;;;;;;5076312;28;21050;-80
2022/09/04 11:24:19;;;;;;;4.17;3.77;;;;;;;;;;5074195;28;20956;-80
2022/09/04 11:27:08;;;;;;;5.20;3.63;;;;;;;;;;5077229;28;20553;-80
2022/09/04 11:29:58;;;;;;;5.30;4.10;;;;;;;;;;5079377;28;20426;-79
2022/09/04 11:32:34;;;;;;;4.75;3.90;;;;;;;;;;5071488;28;20422;-80
2022/09/04 11:35:18;;;;;;;6.18;3.70;;;;;;;;;;5076235;28;20932;-80
2022/09/04 11:37:59;;;;;;;3.75;3.40;;;;;;;;;;5075449;28;20561;-79
2022/09/04 11:40:43;;;;;;;5.38;4.15;;;;;;;;;;5074147;28;20798;-81
2022/09/04 11:43:18;;;;;;;4.68;4.18;;;;;;;;;;5076233;28;20441;-80
2022/09/04 11:45:51;;;;;;;4.00;3.60;;;;;;;;;;5078070;28;20797;-80
2022/09/04 11:48:42;;;;;;;5.32;4.05;;;;;;;;;;5074984;28;20423;-80
2022/09/04 11:51:17;;;;;;;5.30;4.17;;;;;;;;;;5005881;28;20984;-80
2022/09/04 11:53:59;;;;;;;7.90;4.50;;;;;;;;;;5074098;28;20994;-79
2022/09/04 11:56:40;;;;;;;4.50;3.80;;;;;;;;;;5059454;28;20426;-80
2022/09/04 11:59:19;;;;;;;5.38;4.10;;;;;;;;;;5072884;28;20427;-79
2022/09/04 12:01:58;;;;;;;5.10;4.30;;;;;;;;;;5077023;28;20429;-79
2022/09/04 12:04:28;;;;;;;7.25;4.00;;;;;;;;;;5074281;28;20847;-80
2022/09/04 12:07:04;;;;;;;7.57;4.17;;;;;;;;;;5073653;28;21061;-80
2022/09/04 12:10:04;;;;;;;5.27;3.70;;;;;;;;;;5073512;28;20428;-79
2022/09/04 12:12:40;;;;;;;7.20;4.30;;;;;;;;;;4997141;28;20438;-80
2022/09/04 12:15:27;;;;;;;4.40;4.00;;;;;;;;;;4981319;28;20428;-79
2022/09/04 12:18:12;;;;;;;5.97;4.13;;;;;;;;;;5042140;28;20806;-80
2022/09/04 12:20:50;;;;;;;5.90;4.70;;;;;;;;;;5074656;28;20427;-80
2022/09/04 12:23:31;;;;;;;4.63;3.90;;;;;;;;;;5075111;28;20433;-80
2022/09/04 12:26:09;;;;;;;5.20;3.90;;;;;;;;;;5078785;28;20423;-80
2022/09/04 12:28:43;;;;;;;5.07;4.18;;;;;;;;;;5078001;28;20427;-80
2022/09/04 12:31:23;;;;;;;5.27;3.80;;;;;;;;;;5080994;28;20955;-80
2022/09/04 12:34:00;;;;;;;4.90;3.90;;;;;;;;;;5076819;28;20414;-80
2022/09/04 12:36:44;;;;;;;4.53;4.03;;;;;;;;;;5080197;28;20420;-80
2022/09/04 12:39:19;;;;;;;5.47;4.30;;;;;;;;;;5079089;28;20526;-81
2022/09/04 12:41:49;;;;;;;5.37;4.10;;;;;;;;;;5083502;28;20807;-81
2022/09/04 12:44:19;;;;;;;4.85;4.38;;;;;;;;;;5077136;28;20414;-80
2022/09/04 12:46:54;;;;;;;5.40;4.40;;;;;;;;;;5084212;28;20414;-81
2022/09/04 12:49:35;;;;;;;4.90;3.70;;;;;;;;;;5079276;28;20452;-80
2022/09/04 12:52:07;;;;;;;6.30;3.70;;;;;;;;;;5083038;28;20418;-81
2022/09/04 12:54:37;;;;;;;4.30;3.90;;;;;;;;;;5082338;28;20802;-79
2022/09/04 12:57:14;;;;;;;4.40;4.00;;;;;;;;;;5082659;28;20425;-80
2022/09/04 12:59:47;;;;;;;4.72;3.80;;;;;;;;;;5082402;28;20789;-81
2022/09/04 13:02:22;;;;;;;4.53;4.10;;;;;;;;;;5080858;28;20429;-81
2022/09/04 13:04:54;;;;;;;6.03;4.05;;;;;;;;;;5081697;28;20463;-80
2022/09/04 13:07:30;;;;;;;4.40;4.00;;;;;;;;;;5080476;28;20414;-80
2022/09/04 13:10:02;;;;;;;4.93;3.92;;;;;;;;;;5082655;28;20924;-79
2022/09/04 13:12:38;;;;;;;4.00;3.60;;;;;;;;;;5082535;28;20415;-79
2022/09/04 13:15:12;;;;;;;4.18;3.60;;;;;;;;;;5081169;28;20429;-79
2022/09/04 13:17:44;;;;;;;5.70;4.00;;;;;;;;;;5081043;28;20433;-80
2022/09/04 13:20:15;;;;;;;4.88;3.70;;;;;;;;;;5079690;28;20503;-80
2022/09/04 13:22:46;;;;;;;5.60;3.50;;;;;;;;;;5080541;28;20426;-80
2022/09/04 13:25:15;;;;;;;5.00;3.70;;;;;;;;;;5081381;28;20420;-79
2022/09/04 13:27:51;;;;;;;4.75;3.60;;;;;;;;;;5080200;28;20412;-81
2022/09/04 13:30:20;;;;;;;5.80;3.70;;;;;;;;;;5081546;28;20415;-80
2022/09/04 13:33:01;;;;;;;4.90;3.80;;;;;;;;;;5079293;28;20426;-80
2022/09/04 13:35:37;;;;;;;5.40;3.80;;;;;;;;;;5081962;28;20421;-81
2022/09/04 13:38:20;;;;;;;4.40;3.90;;;;;;;;;;5080174;28;20439;-79
2022/09/04 13:41:01;;;;;;;3.80;3.50;;;;;;;;;;5081328;28;20418;-79
2022/09/04 13:43:36;;;;;;;4.32;3.72;;;;;;;;;;5037916;28;20421;-79
2022/09/04 13:46:05;;;;;;;4.40;3.40;;;;;;;;;;5079593;28;20856;-80
2022/09/04 13:48:36;;;;;;;4.70;3.80;;;;;;;;;;5079854;28;20411;-80
2022/09/04 13:51:05;;;;;;;4.60;4.10;;;;;;;;;;5080636;28;20435;-80
2022/09/04 13:53:34;;;;;;;5.53;3.70;;;;;;;;;;5079385;28;20421;-79
2022/09/04 13:56:04;;;;;;;5.57;4.00;;;;;;;;;;5081432;28;20494;-79
2022/09/04 13:58:33;;;;;;;3.83;3.43;;;;;;;;;;5079491;28;20424;-79
2022/09/04 14:01:01;;;;;;;3.90;3.38;;;;;;;;;;5081091;28;21019;-80
2022/09/04 14:03:31;;;;;;;5.05;3.50;;;;;;;;;;5081037;28;20422;-78
2022/09/04 14:05:58;;;;;;;4.15;3.75;;;;;;;;;;5079386;28;21093;-82
2022/09/04 14:08:28;;;;;;;4.45;4.00;;;;;;;;;;5081613;28;20417;-80
2022/09/04 14:11:20;;;;;;;4.07;3.30;;;;;;;;;;5080373;28;20430;-79
2022/09/04 14:14:10;;;;;;;5.13;3.55;;;;;;;;;;5080028;28;20444;-79
2022/09/04 14:16:37;;;;;;;4.53;3.60;;;;;;;;;;5080799;28;20434;-80
2022/09/04 14:19:10;;;;;;;5.63;3.70;;;;;;;;;;5078546;28;21451;-80
2022/09/04 14:21:46;;;;;;;5.05;3.75;;;;;;;;;;5079155;28;20428;-79
2022/09/04 14:24:17;;;;;;;4.20;3.60;;;;;;;;;;5078239;28;20450;-80
2022/09/04 14:26:49;;;;;;;6.90;3.40;;;;;;;;;;5079588;28;20499;-80
2022/09/04 14:29:20;;;;;;;4.10;3.22;;;;;;;;;;5079241;28;20414;-80
2022/09/04 14:31:51;;;;;;;7.35;4.40;;;;;;;;;;5079678;28;20966;-81
2022/09/04 14:34:22;;;;;;;3.67;3.38;;;;;;;;;;5078424;28;20415;-81
2022/09/04 14:36:55;;;;;;;4.40;3.70;;;;;;;;;;5078484;28;20433;-80
2022/09/04 14:39:23;;;;;;;4.05;3.50;;;;;;;;;;5062372;28;20441;-81
2022/09/04 14:42:06;;;;;;;4.97;3.97;;;;;;;;;;5079929;28;20555;-80
2022/09/04 14:44:41;;;;;;;4.50;3.70;;;;;;;;;;5078946;28;20951;-80
2022/09/04 14:47:15;;;;;;;4.55;4.10;;;;;;;;;;5080382;28;20483;-81
2022/09/04 14:49:42;;;;;;;4.60;4.00;;;;;;;;;;5077025;28;20489;-80
2022/09/04 14:52:12;;;;;;;4.00;3.60;;;;;;;;;;5080933;28;20422;-80
2022/09/04 14:54:42;;;;;;;4.10;3.70;;;;;;;;;;5078399;28;20461;-81
2022/09/04 14:57:12;;;;;;;6.90;5.00;;;;;;;;;;5080405;28;20420;-79
2022/09/04 14:59:43;;;;;;;6.80;3.40;;;;;;;;;;5078939;28;20427;-80
2022/09/04 15:02:18;;;;;;;3.80;3.40;;;;;;;;;;5080838;28;20503;-82
2022/09/04 15:04:47;;;;;;;4.00;3.60;;;;;;;;;;5079160;28;20414;-80
2022/09/04 15:07:21;;;;;;;5.65;3.85;;;;;;;;;;5079195;28;20439;-80
2022/09/04 15:09:49;;;;;;;4.85;3.53;;;;;;;;;;5078397;28;20431;-82
2022/09/04 15:12:18;;;;;;;4.20;3.90;;;;;;;;;;5079633;28;20437;-80
2022/09/04 15:14:47;;;;;;;4.27;3.87;;;;;;;;;;5079966;28;20923;-80
2022/09/04 15:17:27;;;;;;;7.60;3.70;;;;;;;;;;5080916;28;20405;-81
2022/09/04 15:19:56;;;;;;;4.80;3.58;;;;;;;;;;5078314;28;20498;-79
2022/09/04 15:22:27;;;;;;;4.97;3.60;;;;;;;;;;5070055;28;20488;-80
2022/09/04 15:24:55;;;;;;;4.33;3.60;;;;;;;;;;5059756;28;21010;-79
2022/09/04 15:27:27;;;;;;;5.78;4.00;;;;;;;;;;5078575;28;20441;-80
2022/09/04 15:30:15;;;;;;;5.90;3.90;;;;;;;;;;5078919;28;20447;-83
2022/09/04 15:32:43;;;;;;;4.72;4.22;;;;;;;;;;5079492;28;20801;-81
2022/09/04 15:35:15;;;;;;;4.35;3.63;;;;;;;;;;5077252;28;20581;-80